KDZJ

Blairsville Airport

Blairsville, Georgia, USA
METAR KDZJ 231055Z AUTO 00000KT 10SM CLR 07/M02 A2988 RMK AO2 T00681024
Observed Flight Rules
Jan-23 @ 10:55 UTC (50 minutes ago) Visual Flight Rules
Wind Visibility Clouds
Calm 10 miles
  • Clear skies
Temperatures Readings
Current 7°C / 45°F
Dewpoint -2°C / 28°F
Humidity 53%
Altimeter 29.88" Hg
Pressure 1012 hPa
Elevation 582
METAR KDZJ 231055Z AUTO 00000KT 10SM CLR 07/M02 A2988 RMK AO2 T00681024
Observed Flight Rules
Jan-23 @ 10:55 UTC
(50 minutes ago)
VFR
Wind Visibility
Calm 10 miles
Clouds
  • Clear skies
Temperature Dewpoint
7°C / 45°F -2°C / 28°F
Humidity Altimeter Pressure
53% 29.88" Hg 1012 hPa